Flight Track Log - Related Links

Times and Time Zones

All times are in EDT time to prevent confusion due to time zone crossing. See the EJA396 flight status page for this flight to view local times or setup timezone preferences in your user account.

Time Position Orientation Groundspeed Altitude Reporting Facility
EDT Latitude Longitude Course Direction KTS MPH feet Rate Location/Type
Fri 02:58:47 PM 40.8333 -74.3833 37° Northeast 201 231 1,900  Level New York TRACON
Fri 02:59:47 PM 40.8833 -74.3333 37° Northeast 207 238 3,900 2,050 Climbing New York TRACON
Fri 03:00:47 PM 40.9333 -74.3000 27° Northeast 205 236 6,000 1,050 Climbing New York TRACON
Fri 03:01:47 PM 40.9833 -74.2667 27° Northeast 231 266 6,000  Level New York TRACON
Fri 03:02:47 PM 41.0333 -74.2167 37° Northeast 240 276 6,000  Level New York TRACON
Fri 03:03:47 PM 41.1000 -74.1667 29° Northeast 248 285 6,000 50 Level New York TRACON
Fri 03:04:47 PM 41.1500 -74.1167 37° Northeast 233 268 6,100 53 Climbing New York TRACON
Fri 03:05:41 PM 41.1833 -74.0500 56° Northeast 236 272 6,100  Level New York TRACON
Fri 03:06:41 PM 41.2000 -73.9667 75° East 251 289 6,100  Level New York TRACON
Fri 03:07:41 PM 41.2167 -73.8667 77° East 270 311 6,100  Level New York TRACON
Fri 03:08:41 PM 41.2333 -73.7833 75° East 269 310 6,100 -300 Level New York TRACON
Fri 03:09:41 PM 41.2500 -73.6833 77° East 265 305 5,500 -500 Descending New York TRACON
Fri 03:10:41 PM 41.2833 -73.6000 62° Northeast 253 291 5,100 -250 Descending New York TRACON
Fri 03:11:41 PM 41.2667 -73.5000 102° East 243 280 5,000 -50 Descending New York TRACON
Fri 03:12:41 PM 41.2667 -73.4167 90° East 261 300 5,000 50 Level New York TRACON
Fri 03:13:41 PM 41.2500 -73.3167 102° East 264 304 5,100 50 Climbing New York TRACON
Fri 03:14:41 PM 41.2333 -73.2167 102° East 263 303 5,100 -50 Level New York TRACON
Fri 03:15:41 PM 41.2333 -73.1333 90° East 257 296 5,000 -50 Descending New York TRACON
Fri 03:16:41 PM 41.2167 -73.0333 102° East 252 290 5,000 50 Level New York TRACON
Fri 03:17:42 PM 41.2000 -72.9500 105° East 247 284 5,100 50 Climbing New York TRACON
Fri 03:18:42 PM 41.2000 -72.8667 90° East 248 285 5,100 -50 Level New York TRACON
Fri 03:19:42 PM 41.1667 -72.7833 118° Southeast 281 323 5,000 -192 Descending New York TRACON
Fri 03:20:47 PM 41.0667 -72.7333 159° South 291 335 4,700 -550 Descending New York TRACON
Fri 03:21:42 PM 41.0000 -72.7000 159° South 297 342 3,900 -850 Descending New York TRACON
Fri 03:22:47 PM 40.9167 -72.6833 171° South 292 336 3,000 -864 Descending New York TRACON
Fri 03:23:47 PM 40.8500 -72.7000 191° South 216 249 2,100 -950 Descending New York TRACON
Fri 03:24:47 PM 40.8167 -72.6833 159° South 146 168 1,100 -900 Descending New York TRACON
Fri 03:25:47 PM 40.8333 -72.6500 57° Northeast 118 136 300 -800 Descending New York TRACON

Login

Don't have an account? Register now (free) for customized features, flight alerts, and more!